Time;durP1;ratioP1;P1;durP2;ratioP2;P2;SDS_P1;SDS_P2;PMS_P1;PMS_P2;Temp;Humidity;BMP_temperature;BMP_pressure;BME280_temperature;BME280_humidity;BME280_pressure;Samples;Min_cycle;Max_cycle;Signal;HPM_P1;HPM_P2
2021/12/22 00:02:13;;;;;;;1.90;1.80;;;-0.90;98.20;;;;;;4988582;28;20480;-74
2021/12/22 00:04:44;;;;;;;1.90;1.80;;;-0.90;98.20;;;;;;4992769;28;20558;-73
2021/12/22 00:07:11;;;;;;;2.00;1.80;;;-0.80;98.20;;;;;;4988509;28;20900;-73
2021/12/22 00:09:39;;;;;;;1.80;1.70;;;-0.80;98.20;;;;;;4993784;28;20974;-74
2021/12/22 00:12:08;;;;;;;1.97;1.80;;;-0.80;98.20;;;;;;4981860;28;20525;-73
2021/12/22 00:14:35;;;;;;;2.43;2.27;;;-0.80;98.20;;;;;;4993098;28;20732;-73
2021/12/22 00:17:02;;;;;;;1.93;1.83;;;-0.70;98.20;;;;;;4985096;28;20483;-74
2021/12/22 00:19:29;;;;;;;1.83;1.70;;;-0.70;98.20;;;;;;4994336;28;20946;-73
2021/12/22 00:21:56;;;;;;;1.93;1.80;;;-0.70;98.20;;;;;;4981224;28;20570;-73
2021/12/22 00:24:22;;;;;;;1.90;1.80;;;-0.70;98.20;;;;;;4994083;28;20488;-73
2021/12/22 00:26:50;;;;;;;1.90;1.80;;;-0.60;98.20;;;;;;4979200;28;20484;-73
2021/12/22 00:29:18;;;;;;;1.97;1.80;;;-0.60;98.20;;;;;;4995450;28;20472;-74
2021/12/22 00:31:57;;;;;;;1.90;1.70;;;-0.60;98.20;;;;;;4981204;28;20491;-73
2021/12/22 00:34:26;;;;;;;1.90;1.80;;;-0.60;98.20;;;;;;4993240;28;20905;-73
2021/12/22 00:36:53;;;;;;;1.80;1.70;;;-0.60;98.20;;;;;;4978259;28;20977;-73
2021/12/22 00:39:21;;;;;;;1.80;1.70;;;-0.60;98.20;;;;;;4994751;28;20472;-74
2021/12/22 00:41:50;;;;;;;1.90;1.80;;;-0.60;98.20;;;;;;4985187;28;20487;-73
2021/12/22 00:44:18;;;;;;;1.93;1.80;;;-0.60;98.20;;;;;;4994578;28;20498;-73
2021/12/22 00:46:45;;;;;;;1.80;1.70;;;-0.60;98.20;;;;;;4985169;28;20559;-74
2021/12/22 00:49:12;;;;;;;2.10;1.90;;;-0.60;98.20;;;;;;4996261;28;20480;-73
2021/12/22 00:51:38;;;;;;;1.90;1.80;;;-0.60;98.20;;;;;;4983227;28;20496;-73
2021/12/22 00:54:05;;;;;;;1.90;1.80;;;-0.60;98.20;;;;;;4995263;28;20539;-74
2021/12/22 00:56:32;;;;;;;1.90;1.80;;;-0.60;98.20;;;;;;4978622;28;20769;-73
2021/12/22 00:58:59;;;;;;;1.80;1.70;;;-0.60;98.20;;;;;;4996005;28;20476;-73
2021/12/22 01:01:27;;;;;;;1.80;1.70;;;-0.60;98.20;;;;;;4979398;28;20556;-73
2021/12/22 01:03:56;;;;;;;1.80;1.70;;;-0.60;98.20;;;;;;4996325;28;20471;-73
2021/12/22 01:06:23;;;;;;;1.80;1.70;;;-0.70;98.20;;;;;;4977152;28;20485;-73
2021/12/22 01:08:50;;;;;;;1.80;1.70;;;-0.60;98.20;;;;;;4997729;28;20499;-73
2021/12/22 01:11:17;;;;;;;1.80;1.70;;;-0.60;98.20;;;;;;4983941;28;20865;-74
2021/12/22 01:13:45;;;;;;;1.80;1.70;;;-0.60;98.20;;;;;;4998471;28;21004;-73
2021/12/22 01:16:13;;;;;;;2.07;1.90;;;-0.60;98.20;;;;;;4983400;28;20587;-73
2021/12/22 01:18:43;;;;;;;1.87;1.77;;;-0.60;98.20;;;;;;4998939;28;20461;-73
2021/12/22 01:21:16;;;;;;;1.80;1.70;;;-0.60;98.20;;;;;;4976695;28;20963;-73
2021/12/22 01:24:00;;;;;;;1.97;1.80;;;-0.60;98.20;;;;;;4998316;28;20842;-74
2021/12/22 01:26:27;;;;;;;2.00;1.80;;;-0.50;98.20;;;;;;4979271;28;20567;-73
2021/12/22 01:28:54;;;;;;;1.90;1.80;;;-0.50;98.20;;;;;;4997123;28;20476;-73
2021/12/22 01:31:21;;;;;;;1.80;1.70;;;-0.50;98.20;;;;;;4976100;28;21151;-73
2021/12/22 01:33:49;;;;;;;1.90;1.80;;;-0.50;98.20;;;;;;4997484;28;20552;-74
2021/12/22 01:36:16;;;;;;;1.80;1.70;;;-0.50;98.20;;;;;;4981791;28;20485;-74
2021/12/22 01:38:43;;;;;;;1.87;1.77;;;-0.50;98.20;;;;;;4998421;28;20461;-72
2021/12/22 01:41:13;;;;;;;1.80;1.70;;;-0.50;98.20;;;;;;4981696;28;20708;-73
2021/12/22 01:43:40;;;;;;;1.80;1.70;;;-0.50;98.20;;;;;;4998313;28;20469;-73
2021/12/22 01:49:10;;;;;;;1.80;1.70;;;-0.50;98.20;;;;;;4979843;28;20473;-73
2021/12/22 01:49:41;;;;;;;1.90;1.80;;;-0.50;98.20;;;;;;4990935;28;20932;-73
2021/12/22 01:52:09;;;;;;;1.90;1.80;;;-0.50;98.20;;;;;;4981543;28;20499;-74
2021/12/22 01:54:40;;;;;;;1.70;1.60;;;-0.50;98.20;;;;;;4989911;28;20468;-73
2021/12/22 01:57:10;;;;;;;1.80;1.70;;;-0.50;98.20;;;;;;4981579;28;20510;-73
2021/12/22 01:59:38;;;;;;;1.80;1.70;;;-0.50;98.20;;;;;;4991958;28;20469;-73
2021/12/22 02:02:06;;;;;;;3.83;3.63;;;-0.50;98.20;;;;;;4984794;28;20488;-73
2021/12/22 02:04:37;;;;;;;1.90;1.80;;;-0.50;98.20;;;;;;4991064;28;20488;-74
2021/12/22 02:07:05;;;;;;;1.93;1.80;;;-0.50;98.20;;;;;;4980747;28;20480;-73
2021/12/22 02:09:50;;;;;;;1.90;1.80;;;-0.50;98.20;;;;;;4992430;28;20461;-73
2021/12/22 02:12:17;;;;;;;1.80;1.70;;;-0.50;98.20;;;;;;4986516;28;21078;-73
2021/12/22 02:14:45;;;;;;;1.87;1.77;;;-0.50;98.20;;;;;;4976621;28;20465;-73
2021/12/22 02:17:13;;;;;;;1.90;1.80;;;-0.50;98.20;;;;;;4980481;28;20962;-73
2021/12/22 02:19:44;;;;;;;1.80;1.70;;;-0.50;98.20;;;;;;4996666;28;20902;-73
2021/12/22 02:22:14;;;;;;;1.80;1.70;;;-0.50;98.20;;;;;;4988656;28;20623;-73
2021/12/22 02:24:47;;;;;;;1.90;1.80;;;-0.50;98.20;;;;;;4991712;28;20460;-73
2021/12/22 02:27:23;;;;;;;1.80;1.70;;;-0.50;98.20;;;;;;4899711;29;20490;-74
2021/12/22 02:29:56;;;;;;;2.03;1.90;;;-0.60;98.20;;;;;;4971343;28;20526;-73
2021/12/22 02:32:48;;;;;;;1.83;1.73;;;-0.60;98.20;;;;;;4989881;28;20569;-73
2021/12/22 02:35:17;;;;;;;1.90;1.80;;;-0.60;98.20;;;;;;4989264;28;20468;-73
2021/12/22 02:37:46;;;;;;;1.80;1.70;;;-0.60;98.20;;;;;;4991413;28;20699;-73
2021/12/22 02:40:17;;;;;;;1.93;1.80;;;-0.60;98.20;;;;;;4991249;28;21012;-74
2021/12/22 02:42:46;;;;;;;1.80;1.70;;;-0.60;98.20;;;;;;4992372;28;20926;-73
2021/12/22 02:45:16;;;;;;;1.80;1.70;;;-0.60;98.20;;;;;;4988738;28;20457;-73
2021/12/22 02:47:43;;;;;;;1.80;1.70;;;-0.70;98.20;;;;;;4991216;28;20480;-74
2021/12/22 02:50:14;;;;;;;1.90;1.80;;;-0.70;98.20;;;;;;4989926;28;20493;-73
2021/12/22 02:52:52;;;;;;;1.90;1.80;;;-0.70;98.20;;;;;;4988435;28;20986;-73
2021/12/22 02:55:27;;;;;;;1.80;1.70;;;-0.70;98.20;;;;;;4987622;28;20475;-73
2021/12/22 02:57:59;;;;;;;1.80;1.70;;;-0.70;98.20;;;;;;4985027;28;20555;-73
2021/12/22 03:00:34;;;;;;;1.93;1.83;;;-0.70;98.20;;;;;;4988686;28;20493;-73
2021/12/22 03:03:09;;;;;;;3.50;3.30;;;-0.70;98.20;;;;;;4989266;28;20502;-73
2021/12/22 03:05:39;;;;;;;1.83;1.73;;;-0.70;98.20;;;;;;4987358;28;20559;-74
2021/12/22 03:08:07;;;;;;;1.80;1.70;;;-0.70;98.20;;;;;;4989530;28;21214;-74
2021/12/22 03:10:37;;;;;;;1.80;1.70;;;-0.70;98.20;;;;;;4988285;28;21016;-73
2021/12/22 03:13:05;;;;;;;1.80;1.70;;;-0.70;98.20;;;;;;4979165;28;20494;-74
2021/12/22 03:15:32;;;;;;;1.80;1.70;;;-0.70;98.20;;;;;;4987663;28;20925;-73
2021/12/22 03:18:00;;;;;;;2.20;2.00;;;-0.80;98.20;;;;;;4993753;28;20472;-73
2021/12/22 03:20:27;;;;;;;1.80;1.70;;;-0.70;98.20;;;;;;4989234;28;20960;-74
2021/12/22 03:22:53;;;;;;;1.80;1.70;;;-0.80;98.20;;;;;;4993448;28;20490;-73
2021/12/22 03:25:26;;;;;;;1.80;1.70;;;-0.80;98.20;;;;;;4985886;28;20858;-73
2021/12/22 03:27:56;;;;;;;1.90;1.80;;;-0.80;98.20;;;;;;4984145;28;20911;-73
2021/12/22 03:30:25;;;;;;;1.80;1.70;;;-0.80;98.20;;;;;;4983177;28;20484;-74
2021/12/22 03:32:52;;;;;;;5.10;3.63;;;-0.80;98.20;;;;;;4992725;28;20487;-73
2021/12/22 03:35:21;;;;;;;1.90;1.80;;;-0.80;98.20;;;;;;4984446;28;20457;-73
2021/12/22 03:37:51;;;;;;;2.10;1.90;;;-0.80;98.20;;;;;;4993114;28;20480;-73
2021/12/22 03:40:18;;;;;;;1.80;1.70;;;-0.80;98.20;;;;;;4986154;28;20488;-73
2021/12/22 03:42:47;;;;;;;1.90;1.80;;;-0.70;98.20;;;;;;4983573;28;20488;-73
2021/12/22 03:45:15;;;;;;;1.93;1.80;;;-0.70;98.20;;;;;;4985012;28;20472;-73
2021/12/22 03:47:42;;;;;;;1.80;1.70;;;-0.70;98.20;;;;;;4981398;28;21007;-73
2021/12/22 03:50:09;;;;;;;2.30;2.10;;;-0.80;98.20;;;;;;4989660;28;20492;-73
2021/12/22 03:52:37;;;;;;;1.77;1.67;;;-0.70;98.20;;;;;;4990838;28;20494;-74
2021/12/22 03:55:06;;;;;;;1.90;1.80;;;-0.70;98.20;;;;;;4988148;28;21195;-73
2021/12/22 03:57:32;;;;;;;1.80;1.70;;;-0.80;98.20;;;;;;4978294;28;20978;-73
2021/12/22 04:00:02;;;;;;;1.80;1.70;;;-0.70;98.20;;;;;;4989980;28;20485;-73
2021/12/22 04:02:29;;;;;;;1.80;1.70;;;-0.80;98.20;;;;;;4981683;28;20507;-73
2021/12/22 04:04:56;;;;;;;1.80;1.70;;;-0.80;98.20;;;;;;4989713;28;20473;-73
2021/12/22 04:07:24;;;;;;;3.30;3.10;;;-0.80;98.20;;;;;;4984482;28;20495;-73
2021/12/22 04:09:52;;;;;;;1.80;1.70;;;-0.80;98.20;;;;;;4991325;28;20489;-73
2021/12/22 04:12:19;;;;;;;1.80;1.70;;;-0.80;98.20;;;;;;4987149;28;20480;-73
2021/12/22 04:14:46;;;;;;;1.80;1.70;;;-0.70;98.20;;;;;;4989676;28;20523;-73
2021/12/22 04:17:14;;;;;;;1.90;1.80;;;-0.70;98.20;;;;;;4980005;28;21079;-73
2021/12/22 04:19:41;;;;;;;1.80;1.70;;;-0.70;98.20;;;;;;4983680;28;20951;-73
2021/12/22 04:22:08;;;;;;;1.97;1.80;;;-0.70;98.20;;;;;;4982844;28;20484;-73
2021/12/22 04:24:35;;;;;;;12.03;9.00;;;-0.70;98.20;;;;;;4990641;28;20965;-73
2021/12/22 04:27:02;;;;;;;1.90;1.80;;;-0.80;98.20;;;;;;4976947;28;20485;-73
2021/12/22 04:29:29;;;;;;;2.97;2.77;;;-0.80;98.20;;;;;;4984608;28;20490;-74
2021/12/22 04:31:58;;;;;;;1.90;1.80;;;-0.80;98.20;;;;;;4984598;28;20502;-73
2021/12/22 04:34:27;;;;;;;1.90;1.80;;;-0.80;98.20;;;;;;4987593;28;20477;-73
2021/12/22 04:36:53;;;;;;;1.90;1.80;;;-0.80;98.20;;;;;;4982507;28;21078;-73
2021/12/22 04:39:20;;;;;;;1.80;1.70;;;-0.80;98.20;;;;;;4987531;28;20475;-73
2021/12/22 04:41:48;;;;;;;1.80;1.70;;;-0.80;98.20;;;;;;4978126;28;20974;-73
2021/12/22 04:44:16;;;;;;;2.00;1.80;;;-0.80;98.20;;;;;;4989981;28;20473;-73
2021/12/22 04:46:44;;;;;;;1.80;1.70;;;-0.80;98.20;;;;;;4984180;28;20478;-73
2021/12/22 04:49:11;;;;;;;1.80;1.70;;;-0.80;98.20;;;;;;4989095;28;20523;-73
2021/12/22 04:51:48;;;;;;;1.83;1.73;;;-0.80;98.20;;;;;;4986268;28;20919;-73
2021/12/22 04:54:19;;;;;;;1.80;1.70;;;-0.80;98.20;;;;;;4986099;28;20461;-73
2021/12/22 04:56:46;;;;;;;9.53;6.03;;;-0.80;98.20;;;;;;4979540;28;20590;-73
2021/12/22 04:59:13;;;;;;;1.80;1.70;;;-0.80;98.20;;;;;;4990886;28;20926;-74
2021/12/22 05:01:40;;;;;;;2.67;2.47;;;-0.80;98.20;;;;;;4976263;28;21159;-73
2021/12/22 05:04:07;;;;;;;9.70;9.03;;;-0.80;98.20;;;;;;4989672;28;20499;-73
2021/12/22 05:06:34;;;;;;;1.80;1.70;;;-0.80;98.20;;;;;;4975763;28;20483;-73
2021/12/22 05:09:04;;;;;;;1.80;1.70;;;-0.70;98.20;;;;;;4987655;28;20531;-73
2021/12/22 05:11:32;;;;;;;1.90;1.80;;;-0.70;98.20;;;;;;4975454;28;20564;-73
2021/12/22 05:14:00;;;;;;;1.80;1.70;;;-0.70;98.20;;;;;;4992523;28;20471;-73
2021/12/22 05:16:28;;;;;;;1.90;1.70;;;-0.70;98.20;;;;;;4975580;28;20480;-73
2021/12/22 05:18:58;;;;;;;1.77;1.67;;;-0.70;98.20;;;;;;4991888;28;20559;-73
2021/12/22 05:21:26;;;;;;;10.63;10.03;;;-0.70;98.20;;;;;;4976439;28;20488;-73
2021/12/22 05:23:53;;;;;;;1.73;1.63;;;-0.70;98.20;;;;;;4988932;28;20462;-73
2021/12/22 05:26:23;;;;;;;1.80;1.70;;;-0.70;98.20;;;;;;4975510;28;20476;-73
2021/12/22 05:28:50;;;;;;;1.70;1.60;;;-0.70;98.20;;;;;;4988686;28;20489;-73
2021/12/22 05:31:17;;;;;;;2.00;1.80;;;-0.70;98.20;;;;;;4977062;28;20487;-72
2021/12/22 05:33:44;;;;;;;1.80;1.70;;;-0.70;98.20;;;;;;4995133;28;20465;-73
2021/12/22 05:36:11;;;;;;;1.80;1.70;;;-0.70;98.20;;;;;;4978051;28;20865;-73
2021/12/22 05:38:38;;;;;;;2.50;2.30;;;-0.70;98.20;;;;;;4991126;28;20461;-73
2021/12/22 05:41:05;;;;;;;1.90;1.80;;;-0.70;98.20;;;;;;4974331;28;20481;-73
2021/12/22 05:43:33;;;;;;;1.80;1.70;;;-0.70;98.20;;;;;;4990168;28;20504;-73
2021/12/22 05:46:01;;;;;;;1.90;1.80;;;-0.70;98.20;;;;;;4974410;28;20833;-73
2021/12/22 05:48:28;;;;;;;2.17;1.97;;;-0.70;98.20;;;;;;4993434;28;20484;-72
2021/12/22 05:50:57;;;;;;;1.80;1.70;;;-0.70;98.20;;;;;;4976787;28;20551;-72
2021/12/22 05:53:25;;;;;;;1.70;1.60;;;-0.70;98.20;;;;;;4992031;28;20531;-73
2021/12/22 05:55:52;;;;;;;1.70;1.60;;;-0.70;98.20;;;;;;4979167;28;20465;-72
2021/12/22 05:58:19;;;;;;;1.80;1.70;;;-0.70;98.20;;;;;;4996107;28;20511;-73
2021/12/22 06:00:48;;;;;;;1.90;1.80;;;-0.70;98.20;;;;;;4986564;28;20491;-73
2021/12/22 06:03:15;;;;;;;1.90;1.80;;;-0.70;98.20;;;;;;4976647;28;21040;-73
2021/12/22 06:05:42;;;;;;;1.80;1.70;;;-0.70;98.20;;;;;;4989855;28;20555;-73
2021/12/22 06:08:09;;;;;;;5.00;4.70;;;-0.70;98.20;;;;;;4989757;28;20480;-73
2021/12/22 06:10:36;;;;;;;1.80;1.70;;;-0.70;98.20;;;;;;4986083;28;20480;-75
2021/12/22 06:13:04;;;;;;;2.43;2.27;;;-0.70;98.20;;;;;;4987636;28;20503;-75
2021/12/22 06:15:30;;;;;;;1.80;1.70;;;-0.70;98.20;;;;;;4988813;28;20468;-75
2021/12/22 06:18:00;;;;;;;1.80;1.70;;;-0.70;98.20;;;;;;4991797;28;20646;-72
2021/12/22 06:20:27;;;;;;;1.90;1.80;;;-0.60;98.20;;;;;;4990072;28;20547;-76
2021/12/22 06:22:55;;;;;;;1.90;1.80;;;-0.60;98.20;;;;;;4987323;28;21018;-75
2021/12/22 06:25:23;;;;;;;1.80;1.70;;;-0.60;98.20;;;;;;4988920;28;20469;-75
2021/12/22 06:27:50;;;;;;;1.80;1.70;;;-0.70;98.20;;;;;;4987306;28;20476;-77
2021/12/22 06:30:18;;;;;;;1.70;1.60;;;-0.70;98.20;;;;;;4989023;28;20492;-74
2021/12/22 06:32:45;;;;;;;1.90;1.80;;;-0.70;98.20;;;;;;4993520;28;20567;-72
2021/12/22 06:35:14;;;;;;;1.83;1.73;;;-0.70;98.20;;;;;;4984697;28;20464;-74
2021/12/22 06:37:40;;;;;;;1.80;1.70;;;-0.60;98.20;;;;;;4993971;28;20490;-74
2021/12/22 06:40:08;;;;;;;8.10;4.70;;;-0.60;98.20;;;;;;4990256;28;20552;-74
2021/12/22 06:42:35;;;;;;;1.80;1.70;;;-0.60;98.20;;;;;;4989747;28;20511;-74
2021/12/22 06:45:02;;;;;;;1.80;1.70;;;-0.60;98.20;;;;;;4989947;28;20501;-75
2021/12/22 06:47:29;;;;;;;1.70;1.60;;;-0.60;98.20;;;;;;4988944;28;20977;-74
2021/12/22 06:49:55;;;;;;;1.90;1.80;;;-0.60;98.20;;;;;;4989827;28;20539;-74
2021/12/22 06:52:24;;;;;;;1.70;1.60;;;-0.60;98.20;;;;;;4990063;28;20570;-74
2021/12/22 06:54:51;;;;;;;1.80;1.70;;;-0.60;98.20;;;;;;4992023;28;20497;-72
2021/12/22 06:57:20;;;;;;;1.70;1.60;;;-0.60;98.20;;;;;;4987972;28;20480;-76
2021/12/22 06:59:48;;;;;;;1.80;1.70;;;-0.60;98.20;;;;;;4992231;28;20461;-75
2021/12/22 07:02:15;;;;;;;1.80;1.70;;;-0.60;98.20;;;;;;4988955;28;20870;-74
2021/12/22 07:04:42;;;;;;;2.30;2.10;;;-0.60;98.20;;;;;;4991193;28;20551;-74
2021/12/22 07:07:10;;;;;;;2.00;1.90;;;-0.60;98.20;;;;;;4986708;28;20865;-74
2021/12/22 07:09:38;;;;;;;1.80;1.70;;;-0.60;98.20;;;;;;4992585;28;20584;-74
2021/12/22 07:12:06;;;;;;;1.70;1.60;;;-0.60;98.20;;;;;;4986604;28;20558;-74
2021/12/22 07:14:33;;;;;;;1.90;1.80;;;-0.60;98.20;;;;;;4993271;28;21015;-74
2021/12/22 07:17:00;;;;;;;1.70;1.60;;;-0.60;98.20;;;;;;4982894;28;21004;-74
2021/12/22 07:19:27;;;;;;;1.80;1.70;;;-0.60;98.20;;;;;;4992053;28;20481;-74
2021/12/22 07:21:55;;;;;;;1.80;1.70;;;-0.60;98.20;;;;;;4982266;28;20527;-75
2021/12/22 07:24:22;;;;;;;1.90;1.80;;;-0.60;98.20;;;;;;4992149;28;20467;-74
2021/12/22 07:26:50;;;;;;;1.70;1.60;;;-0.60;98.20;;;;;;4981941;28;20479;-74
2021/12/22 07:29:17;;;;;;;1.73;1.63;;;-0.60;98.20;;;;;;4985357;28;20499;-74
2021/12/22 07:31:44;;;;;;;1.80;1.70;;;-0.60;98.20;;;;;;4980680;28;20492;-74
2021/12/22 07:34:21;;;;;;;1.80;1.70;;;-0.60;98.20;;;;;;4996157;28;20565;-74
2021/12/22 07:37:01;;;;;;;1.80;1.70;;;-0.60;98.20;;;;;;4982569;28;21023;-74
2021/12/22 07:39:29;;;;;;;3.97;3.70;;;-0.60;98.20;;;;;;4996604;28;20865;-73
2021/12/22 07:41:57;;;;;;;1.70;1.60;;;-0.60;98.20;;;;;;4985854;28;20479;-74
2021/12/22 07:44:24;;;;;;;1.80;1.70;;;-0.60;98.20;;;;;;4992544;28;20492;-74
2021/12/22 07:46:51;;;;;;;2.17;1.97;;;-0.60;98.20;;;;;;4989156;28;20544;-73
2021/12/22 07:49:18;;;;;;;1.80;1.70;;;-0.60;98.20;;;;;;4985528;28;20838;-73
2021/12/22 07:51:45;;;;;;;1.80;1.70;;;-0.60;98.20;;;;;;4980145;28;20483;-73
2021/12/22 07:54:12;;;;;;;1.80;1.70;;;-0.60;98.20;;;;;;4995447;28;20477;-73
2021/12/22 07:56:39;;;;;;;1.70;1.60;;;-0.60;98.20;;;;;;4980080;28;20491;-73
2021/12/22 07:59:08;;;;;;;1.80;1.70;;;-0.60;98.20;;;;;;4996316;28;20469;-74
2021/12/22 08:01:35;;;;;;;1.70;1.60;;;-0.60;98.20;;;;;;4979770;28;20508;-74
2021/12/22 08:04:02;;;;;;;1.80;1.70;;;-0.60;98.20;;;;;;4995432;28;20473;-73
2021/12/22 08:06:29;;;;;;;1.80;1.70;;;-0.60;98.20;;;;;;4981851;28;20481;-73
2021/12/22 08:08:57;;;;;;;2.20;2.00;;;-0.60;98.20;;;;;;4983341;28;20929;-73
2021/12/22 08:11:24;;;;;;;1.80;1.70;;;-0.50;98.20;;;;;;4976677;28;20933;-73
2021/12/22 08:13:51;;;;;;;3.50;3.30;;;-0.50;98.20;;;;;;4999146;28;20889;-73
2021/12/22 08:16:19;;;;;;;1.80;1.70;;;-0.50;98.20;;;;;;4970409;28;20496;-73
2021/12/22 08:18:47;;;;;;;1.80;1.70;;;-0.40;98.20;;;;;;4991760;28;20666;-73
2021/12/22 08:21:21;;;;;;;1.80;1.70;;;-0.40;98.20;;;;;;4976137;28;20540;-73
2021/12/22 08:23:48;;;;;;;1.77;1.67;;;-0.40;98.20;;;;;;4993095;28;20471;-73
2021/12/22 08:26:15;;;;;;;1.80;1.70;;;-0.30;98.20;;;;;;4976312;28;21055;-73
2021/12/22 08:28:42;;;;;;;1.80;1.70;;;-0.30;98.20;;;;;;4994322;28;20472;-73
2021/12/22 08:31:10;;;;;;;2.00;1.80;;;-0.30;98.20;;;;;;4975305;28;20584;-73
2021/12/22 08:33:44;;;;;;;1.80;1.70;;;-0.30;98.20;;;;;;4995917;28;20971;-74
2021/12/22 08:39:00;;;;;;;1.77;1.67;;;-0.30;98.20;;;;;;4983876;28;20492;-74
2021/12/22 08:41:30;;;;;;;1.90;1.80;;;-0.30;98.20;;;;;;4977573;28;21301;-73
2021/12/22 08:44:04;;;;;;;1.90;1.80;;;-0.30;98.20;;;;;;4992960;28;20872;-73
2021/12/22 08:46:32;;;;;;;2.87;2.67;;;-0.20;98.20;;;;;;4977958;28;20558;-73
2021/12/22 08:49:02;;;;;;;1.80;1.70;;;-0.20;98.20;;;;;;4991281;28;20480;-73
2021/12/22 08:51:29;;;;;;;1.80;1.70;;;-0.20;98.20;;;;;;4976466;28;20496;-73
2021/12/22 08:53:57;;;;;;;1.80;1.70;;;-0.10;98.20;;;;;;4993197;28;20828;-73
2021/12/22 08:56:25;;;;;;;1.70;1.60;;;-0.10;98.20;;;;;;4976222;28;20797;-73
2021/12/22 08:58:54;;;;;;;1.80;1.70;;;0.00;98.20;;;;;;4990088;28;20536;-73
2021/12/22 09:01:25;;;;;;;2.00;1.80;;;0.00;98.20;;;;;;4975341;28;21236;-74
2021/12/22 09:03:52;;;;;;;1.80;1.70;;;0.00;98.20;;;;;;4992724;28;20900;-75
2021/12/22 09:06:21;;;;;;;2.00;1.80;;;0.00;98.20;;;;;;4973888;28;20550;-73
2021/12/22 09:08:49;;;;;;;1.73;1.63;;;0.10;98.20;;;;;;4993671;28;20472;-74
2021/12/22 09:11:16;;;;;;;1.80;1.70;;;0.00;98.20;;;;;;4982155;28;20520;-73
2021/12/22 09:13:43;;;;;;;1.70;1.60;;;0.00;98.20;;;;;;4984075;28;20920;-73
2021/12/22 09:16:12;;;;;;;1.70;1.60;;;0.00;98.20;;;;;;4976299;28;20495;-74
2021/12/22 09:18:40;;;;;;;1.90;1.80;;;0.00;98.20;;;;;;4995316;28;20465;-74
2021/12/22 09:21:08;;;;;;;17.57;14.53;;;-0.10;98.20;;;;;;4973949;28;20490;-73
2021/12/22 09:23:38;;;;;;;1.80;1.70;;;-0.10;98.20;;;;;;4994551;28;20854;-73
2021/12/22 09:26:07;;;;;;;1.70;1.60;;;-0.10;98.20;;;;;;4973461;28;20608;-73
2021/12/22 09:28:35;;;;;;;1.80;1.70;;;0.00;98.20;;;;;;4992065;28;20465;-72
2021/12/22 09:31:05;;;;;;;1.80;1.70;;;0.00;98.20;;;;;;4974371;28;21106;-73
2021/12/22 09:33:34;;;;;;;1.80;1.70;;;0.00;98.20;;;;;;4995226;28;20559;-73
2021/12/22 09:36:05;;;;;;;2.30;2.10;;;0.00;98.20;;;;;;4974750;28;20497;-74
2021/12/22 09:38:33;;;;;;;1.80;1.70;;;0.10;98.20;;;;;;4996791;28;20471;-73
2021/12/22 09:41:03;;;;;;;1.70;1.60;;;0.10;98.20;;;;;;4974132;28;20833;-74
2021/12/22 09:43:30;;;;;;;1.80;1.70;;;0.10;98.20;;;;;;4999104;28;20998;-72
2021/12/22 09:46:02;;;;;;;1.80;1.70;;;0.10;98.20;;;;;;4972444;28;20475;-72
2021/12/22 09:48:37;;;;;;;1.80;1.70;;;0.20;98.20;;;;;;4995926;28;20464;-73
2021/12/22 09:53:53;;;;;;;1.70;1.60;;;0.20;98.20;;;;;;4992473;28;20519;-72
2021/12/22 09:56:27;;;;;;;1.80;1.70;;;0.20;98.20;;;;;;4975493;28;20471;-73
2021/12/22 09:58:57;;;;;;;1.77;1.67;;;0.30;98.20;;;;;;4991890;28;20814;-74
2021/12/22 10:01:25;;;;;;;2.43;2.23;;;0.30;98.20;;;;;;4976292;28;20480;-71
2021/12/22 10:03:58;;;;;;;1.70;1.60;;;0.30;98.20;;;;;;4990565;28;20568;-72
2021/12/22 10:06:26;;;;;;;1.70;1.60;;;0.30;98.20;;;;;;4977875;28;20784;-71
2021/12/22 10:08:59;;;;;;;1.80;1.70;;;0.40;98.20;;;;;;4993117;28;20465;-73
2021/12/22 10:11:30;;;;;;;7.00;6.60;;;0.40;98.20;;;;;;4975693;28;20519;-72
2021/12/22 10:13:58;;;;;;;2.00;1.80;;;0.50;98.20;;;;;;4990538;28;20547;-73
2021/12/22 10:16:27;;;;;;;1.80;1.70;;;0.50;98.20;;;;;;4977411;28;20483;-72
2021/12/22 10:19:06;;;;;;;1.70;1.60;;;0.60;98.20;;;;;;4991932;28;20556;-73
2021/12/22 10:21:36;;;;;;;1.70;1.60;;;0.60;98.20;;;;;;4977449;28;20574;-72
2021/12/22 10:24:07;;;;;;;1.70;1.60;;;0.70;98.20;;;;;;4989747;28;20461;-73
2021/12/22 10:26:36;;;;;;;1.70;1.60;;;0.80;98.20;;;;;;4976885;28;20507;-71
2021/12/22 10:29:06;;;;;;;1.70;1.60;;;0.80;98.20;;;;;;4990613;28;20472;-73
2021/12/22 10:31:36;;;;;;;1.70;1.60;;;0.90;98.20;;;;;;4977771;28;20484;-72
2021/12/22 10:34:07;;;;;;;1.70;1.60;;;1.00;98.20;;;;;;4991031;28;20469;-73
2021/12/22 10:36:45;;;;;;;1.70;1.60;;;1.00;98.20;;;;;;4978602;28;20487;-72
2021/12/22 10:39:21;;;;;;;1.70;1.60;;;1.00;98.20;;;;;;4992523;28;20473;-71
2021/12/22 10:41:52;;;;;;;1.70;1.50;;;1.00;98.20;;;;;;4982451;28;20487;-72
2021/12/22 10:44:20;;;;;;;1.70;1.60;;;1.00;98.20;;;;;;4992605;28;20471;-73
2021/12/22 10:46:47;;;;;;;1.70;1.60;;;1.00;98.20;;;;;;4982720;28;20480;-72
2021/12/22 10:49:17;;;;;;;1.70;1.60;;;1.00;98.20;;;;;;4994104;28;20902;-71
2021/12/22 10:51:47;;;;;;;1.70;1.60;;;1.10;98.20;;;;;;4976898;28;20574;-72
2021/12/22 10:54:17;;;;;;;2.00;1.80;;;1.10;98.20;;;;;;4992755;28;20703;-72
2021/12/22 10:56:47;;;;;;;1.70;1.50;;;1.10;98.20;;;;;;4977989;28;21066;-71
2021/12/22 10:59:21;;;;;;;1.70;1.60;;;1.10;98.20;;;;;;4993589;28;21051;-73
2021/12/22 11:02:07;;;;;;;1.70;1.57;;;1.20;98.20;;;;;;4979797;28;20574;-74
2021/12/22 11:04:37;;;;;;;1.87;1.77;;;1.20;98.20;;;;;;4988848;28;21114;-73
2021/12/22 11:07:12;;;;;;;1.97;1.80;;;1.20;98.20;;;;;;4985774;28;20680;-72
2021/12/22 11:09:40;;;;;;;2.00;1.80;;;1.20;98.20;;;;;;4988767;28;20460;-72
2021/12/22 11:12:09;;;;;;;1.70;1.60;;;1.20;98.20;;;;;;4982776;28;20495;-72
2021/12/22 11:14:40;;;;;;;1.70;1.50;;;1.20;98.20;;;;;;4987398;28;20548;-71
2021/12/22 11:17:09;;;;;;;1.70;1.60;;;1.30;98.20;;;;;;4982147;28;20952;-72
2021/12/22 11:19:39;;;;;;;1.70;1.60;;;1.30;98.20;;;;;;4987785;28;20469;-74
2021/12/22 11:22:13;;;;;;;1.70;1.60;;;1.30;98.20;;;;;;4978273;28;21066;-72
2021/12/22 11:24:44;;;;;;;1.67;1.50;;;1.30;98.20;;;;;;4987251;28;20465;-73
2021/12/22 11:27:14;;;;;;;1.70;1.60;;;1.30;98.20;;;;;;4985592;28;20746;-71
2021/12/22 11:29:46;;;;;;;1.70;1.60;;;1.40;98.20;;;;;;4989349;28;20469;-72
2021/12/22 11:32:17;;;;;;;1.70;1.53;;;1.40;98.20;;;;;;4983467;28;20939;-72
2021/12/22 11:34:50;;;;;;;1.70;1.50;;;1.40;98.20;;;;;;4988893;28;20559;-72
2021/12/22 11:37:18;;;;;;;1.63;1.50;;;1.40;98.20;;;;;;4984974;28;20484;-72
2021/12/22 11:39:46;;;;;;;1.70;1.60;;;1.50;98.20;;;;;;4988929;28;20851;-71
2021/12/22 11:42:15;;;;;;;1.70;1.60;;;1.50;98.20;;;;;;4987637;28;20483;-72
2021/12/22 11:44:46;;;;;;;2.23;2.03;;;1.50;98.20;;;;;;4986460;28;20520;-72
2021/12/22 11:47:15;;;;;;;1.70;1.60;;;1.50;98.20;;;;;;4983108;28;20488;-73
2021/12/22 11:49:52;;;;;;;4.80;3.90;;;1.50;98.20;;;;;;4987861;28;20550;-72
2021/12/22 11:52:30;;;;;;;1.70;1.60;;;1.60;98.20;;;;;;4981451;28;20921;-70
2021/12/22 11:55:14;;;;;;;1.70;1.60;;;1.60;98.20;;;;;;4986702;28;20966;-71
2021/12/22 11:57:43;;;;;;;1.70;1.50;;;1.70;98.20;;;;;;4987823;28;20856;-71
2021/12/22 12:00:35;;;;;;;1.70;1.50;;;1.70;98.20;;;;;;4984323;28;20489;-71
2021/12/22 12:03:25;;;;;;;1.70;1.50;;;1.80;98.20;;;;;;4988922;28;20527;-72
2021/12/22 12:06:03;;;;;;;1.70;1.60;;;1.80;98.20;;;;;;4972367;28;20478;-71
2021/12/22 12:08:35;;;;;;;1.70;1.50;;;1.90;98.20;;;;;;4990468;28;20498;-71
2021/12/22 12:11:08;;;;;;;1.80;1.70;;;1.90;98.20;;;;;;4974814;28;20497;-72
2021/12/22 12:13:43;;;;;;;3.90;3.70;;;1.90;98.20;;;;;;4995174;28;20477;-71
2021/12/22 12:22:30;;;;;;;1.70;1.50;;;2.00;98.20;;;;;;4987731;28;21294;-72
2021/12/22 12:25:09;;;;;;;1.67;1.50;;;2.10;98.20;;;;;;4979786;28;20474;-71
2021/12/22 12:27:42;;;;;;;1.63;1.40;;;2.10;98.20;;;;;;4983480;28;20511;-71
2021/12/22 12:30:14;;;;;;;1.67;1.50;;;2.10;98.20;;;;;;4981473;28;20695;-72
2021/12/22 12:33:00;;;;;;;2.47;2.27;;;2.10;98.20;;;;;;4980883;28;20523;-71
2021/12/22 12:35:29;;;;;;;1.70;1.50;;;2.10;98.20;;;;;;4980391;28;20473;-72
2021/12/22 12:38:12;;;;;;;1.70;1.50;;;2.20;98.20;;;;;;4986171;28;20542;-71
2021/12/22 12:41:12;;;;;;;3.77;3.40;;;2.20;98.20;;;;;;4976445;28;20492;-71
2021/12/22 12:43:58;;;;;;;1.70;1.60;;;2.20;98.20;;;;;;4969397;28;20473;-71
2021/12/22 12:46:35;;;;;;;1.70;1.60;;;2.30;98.20;;;;;;4974945;28;20482;-71
2021/12/22 12:49:33;;;;;;;1.70;1.50;;;2.40;98.20;;;;;;4991962;28;20475;-71
2021/12/22 12:52:02;;;;;;;1.70;1.60;;;2.40;98.20;;;;;;4978227;28;20488;-71
2021/12/22 12:54:34;;;;;;;1.67;1.50;;;2.50;98.20;;;;;;4984878;28;21366;-70
2021/12/22 12:57:19;;;;;;;3.80;3.40;;;2.50;98.20;;;;;;4977749;28;20476;-71
2021/12/22 12:59:54;;;;;;;1.70;1.50;;;2.50;98.20;;;;;;4984612;28;20465;-72
2021/12/22 13:02:24;;;;;;;1.60;1.43;;;2.60;98.20;;;;;;4977125;28;20566;-72
2021/12/22 13:05:00;;;;;;;2.80;2.60;;;2.70;98.20;;;;;;4986038;28;20493;-70
2021/12/22 13:07:32;;;;;;;1.67;1.50;;;2.70;98.20;;;;;;4982192;28;20479;-71
2021/12/22 13:10:02;;;;;;;1.70;1.50;;;2.80;98.20;;;;;;4985899;28;20488;-71
2021/12/22 13:12:48;;;;;;;1.90;1.70;;;2.90;98.20;;;;;;4982611;28;20487;-70
2021/12/22 13:18:04;;;;;;;1.70;1.50;;;3.00;98.20;;;;;;4984608;28;20598;-70
2021/12/22 13:20:36;;;;;;;1.70;1.53;;;3.10;98.20;;;;;;4981635;28;20493;-71